sensor_id;sensor_type;location;lat;lon;timestamp;P1;durP1;ratioP1;P2;durP2;ratioP2
15327;SDS011;7764;51.430;6.840;2023-09-12T00:00:22;13.30;;;10.43;;
15327;SDS011;7764;51.430;6.840;2023-09-12T00:02:49;14.70;;;12.05;;
15327;SDS011;7764;51.430;6.840;2023-09-12T00:05:16;14.35;;;10.60;;
15327;SDS011;7764;51.430;6.840;2023-09-12T00:07:45;15.40;;;12.27;;
15327;SDS011;7764;51.430;6.840;2023-09-12T00:10:11;13.05;;;11.20;;
15327;SDS011;7764;51.430;6.840;2023-09-12T00:12:38;16.00;;;11.95;;
15327;SDS011;7764;51.430;6.840;2023-09-12T00:15:05;14.38;;;12.02;;
15327;SDS011;7764;51.430;6.840;2023-09-12T00:17:33;17.00;;;12.40;;
15327;SDS011;7764;51.430;6.840;2023-09-12T00:20:00;14.27;;;12.55;;
15327;SDS011;7764;51.430;6.840;2023-09-12T00:22:28;19.80;;;13.00;;
15327;SDS011;7764;51.430;6.840;2023-09-12T00:24:56;16.70;;;13.00;;
15327;SDS011;7764;51.430;6.840;2023-09-12T00:27:23;16.73;;;12.50;;
15327;SDS011;7764;51.430;6.840;2023-09-12T00:29:50;15.57;;;12.63;;
15327;SDS011;7764;51.430;6.840;2023-09-12T00:32:17;19.75;;;16.17;;
15327;SDS011;7764;51.430;6.840;2023-09-12T00:34:44;21.85;;;17.48;;
15327;SDS011;7764;51.430;6.840;2023-09-12T00:37:11;22.83;;;17.67;;
15327;SDS011;7764;51.430;6.840;2023-09-12T00:39:38;23.65;;;18.38;;
15327;SDS011;7764;51.430;6.840;2023-09-12T00:42:06;26.70;;;19.00;;
15327;SDS011;7764;51.430;6.840;2023-09-12T00:44:33;24.88;;;19.48;;
15327;SDS011;7764;51.430;6.840;2023-09-12T00:47:00;27.85;;;19.42;;
15327;SDS011;7764;51.430;6.840;2023-09-12T00:49:28;25.88;;;20.83;;
15327;SDS011;7764;51.430;6.840;2023-09-12T00:51:56;27.33;;;20.92;;
15327;SDS011;7764;51.430;6.840;2023-09-12T00:54:24;28.20;;;20.50;;
15327;SDS011;7764;51.430;6.840;2023-09-12T00:56:51;29.83;;;21.08;;
15327;SDS011;7764;51.430;6.840;2023-09-12T00:59:20;28.50;;;21.13;;
15327;SDS011;7764;51.430;6.840;2023-09-12T01:01:47;29.38;;;22.05;;
15327;SDS011;7764;51.430;6.840;2023-09-12T01:04:14;28.23;;;21.88;;
15327;SDS011;7764;51.430;6.840;2023-09-12T01:06:41;29.63;;;21.17;;
15327;SDS011;7764;51.430;6.840;2023-09-12T01:09:10;27.55;;;20.77;;
15327;SDS011;7764;51.430;6.840;2023-09-12T01:11:38;27.75;;;20.25;;
15327;SDS011;7764;51.430;6.840;2023-09-12T01:14:06;27.52;;;19.83;;
15327;SDS011;7764;51.430;6.840;2023-09-12T01:16:34;25.83;;;20.60;;
15327;SDS011;7764;51.430;6.840;2023-09-12T01:19:01;30.52;;;21.33;;
15327;SDS011;7764;51.430;6.840;2023-09-12T01:21:41;28.70;;;20.90;;
15327;SDS011;7764;51.430;6.840;2023-09-12T01:27:19;28.83;;;21.00;;
15327;SDS011;7764;51.430;6.840;2023-09-12T01:29:49;31.95;;;22.02;;
15327;SDS011;7764;51.430;6.840;2023-09-12T01:32:23;30.88;;;21.92;;
15327;SDS011;7764;51.430;6.840;2023-09-12T01:34:51;25.83;;;19.85;;
15327;SDS011;7764;51.430;6.840;2023-09-12T01:37:18;29.85;;;20.10;;
15327;SDS011;7764;51.430;6.840;2023-09-12T01:39:46;32.58;;;20.85;;
15327;SDS011;7764;51.430;6.840;2023-09-12T01:42:14;34.30;;;21.63;;
15327;SDS011;7764;51.430;6.840;2023-09-12T01:44:45;28.05;;;21.23;;
15327;SDS011;7764;51.430;6.840;2023-09-12T01:47:16;28.70;;;20.40;;
15327;SDS011;7764;51.430;6.840;2023-09-12T01:49:45;26.27;;;19.60;;
15327;SDS011;7764;51.430;6.840;2023-09-12T01:52:14;30.17;;;22.08;;
15327;SDS011;7764;51.430;6.840;2023-09-12T01:54:41;27.67;;;21.58;;
15327;SDS011;7764;51.430;6.840;2023-09-12T01:57:09;28.25;;;22.33;;
15327;SDS011;7764;51.430;6.840;2023-09-12T01:59:37;34.08;;;25.02;;
15327;SDS011;7764;51.430;6.840;2023-09-12T02:02:06;31.45;;;23.92;;
15327;SDS011;7764;51.430;6.840;2023-09-12T02:04:33;32.53;;;23.58;;
15327;SDS011;7764;51.430;6.840;2023-09-12T02:07:00;33.10;;;24.75;;
15327;SDS011;7764;51.430;6.840;2023-09-12T02:09:27;32.55;;;24.50;;
15327;SDS011;7764;51.430;6.840;2023-09-12T02:11:54;30.70;;;23.17;;
15327;SDS011;7764;51.430;6.840;2023-09-12T02:14:22;32.40;;;24.17;;
15327;SDS011;7764;51.430;6.840;2023-09-12T02:16:49;32.00;;;23.77;;
15327;SDS011;7764;51.430;6.840;2023-09-12T02:19:17;32.95;;;24.60;;
15327;SDS011;7764;51.430;6.840;2023-09-12T02:21:44;33.75;;;25.27;;
15327;SDS011;7764;51.430;6.840;2023-09-12T02:24:11;32.35;;;24.40;;
15327;SDS011;7764;51.430;6.840;2023-09-12T02:26:39;33.95;;;24.98;;
15327;SDS011;7764;51.430;6.840;2023-09-12T02:29:06;46.58;;;36.72;;
15327;SDS011;7764;51.430;6.840;2023-09-12T02:31:34;61.20;;;52.75;;
15327;SDS011;7764;51.430;6.840;2023-09-12T02:34:02;34.10;;;25.33;;
15327;SDS011;7764;51.430;6.840;2023-09-12T02:36:33;33.50;;;25.13;;
15327;SDS011;7764;51.430;6.840;2023-09-12T02:39:00;30.35;;;24.35;;
15327;SDS011;7764;51.430;6.840;2023-09-12T02:41:28;30.45;;;23.77;;
15327;SDS011;7764;51.430;6.840;2023-09-12T02:43:55;30.20;;;22.60;;
15327;SDS011;7764;51.430;6.840;2023-09-12T02:46:23;32.92;;;24.55;;
15327;SDS011;7764;51.430;6.840;2023-09-12T02:48:50;42.35;;;34.70;;
15327;SDS011;7764;51.430;6.840;2023-09-12T02:51:17;34.53;;;24.30;;
15327;SDS011;7764;51.430;6.840;2023-09-12T02:53:45;35.13;;;24.92;;
15327;SDS011;7764;51.430;6.840;2023-09-12T02:56:12;35.40;;;24.15;;
15327;SDS011;7764;51.430;6.840;2023-09-12T02:58:40;31.48;;;25.10;;
15327;SDS011;7764;51.430;6.840;2023-09-12T03:01:07;34.08;;;25.58;;
15327;SDS011;7764;51.430;6.840;2023-09-12T03:03:34;37.72;;;27.77;;
15327;SDS011;7764;51.430;6.840;2023-09-12T03:06:01;37.17;;;27.50;;
15327;SDS011;7764;51.430;6.840;2023-09-12T03:08:29;35.50;;;27.33;;
15327;SDS011;7764;51.430;6.840;2023-09-12T03:10:57;34.72;;;27.35;;
15327;SDS011;7764;51.430;6.840;2023-09-12T03:13:27;39.70;;;28.90;;
15327;SDS011;7764;51.430;6.840;2023-09-12T03:15:54;40.60;;;28.73;;
15327;SDS011;7764;51.430;6.840;2023-09-12T03:18:21;41.17;;;30.05;;
15327;SDS011;7764;51.430;6.840;2023-09-12T03:20:49;40.92;;;29.27;;
15327;SDS011;7764;51.430;6.840;2023-09-12T03:23:16;37.63;;;30.48;;
15327;SDS011;7764;51.430;6.840;2023-09-12T03:25:43;43.83;;;30.83;;
15327;SDS011;7764;51.430;6.840;2023-09-12T03:28:11;43.75;;;33.13;;
15327;SDS011;7764;51.430;6.840;2023-09-12T03:30:39;44.45;;;32.50;;
15327;SDS011;7764;51.430;6.840;2023-09-12T03:33:06;42.08;;;32.80;;
15327;SDS011;7764;51.430;6.840;2023-09-12T03:35:33;49.67;;;34.60;;
15327;SDS011;7764;51.430;6.840;2023-09-12T03:38:00;43.83;;;33.80;;
15327;SDS011;7764;51.430;6.840;2023-09-12T03:40:28;45.53;;;34.80;;
15327;SDS011;7764;51.430;6.840;2023-09-12T03:42:56;44.20;;;34.05;;
15327;SDS011;7764;51.430;6.840;2023-09-12T03:45:24;43.70;;;35.42;;
15327;SDS011;7764;51.430;6.840;2023-09-12T03:47:51;45.25;;;36.08;;
15327;SDS011;7764;51.430;6.840;2023-09-12T03:50:18;46.83;;;36.22;;
15327;SDS011;7764;51.430;6.840;2023-09-12T03:52:46;45.10;;;34.75;;
15327;SDS011;7764;51.430;6.840;2023-09-12T03:55:13;46.55;;;33.88;;
15327;SDS011;7764;51.430;6.840;2023-09-12T03:57:40;43.30;;;33.90;;
15327;SDS011;7764;51.430;6.840;2023-09-12T04:00:07;49.42;;;36.53;;
15327;SDS011;7764;51.430;6.840;2023-09-12T04:02:36;44.70;;;33.72;;
15327;SDS011;7764;51.430;6.840;2023-09-12T04:05:04;45.88;;;34.00;;
15327;SDS011;7764;51.430;6.840;2023-09-12T04:07:31;44.30;;;32.50;;
15327;SDS011;7764;51.430;6.840;2023-09-12T04:09:58;42.13;;;31.85;;
15327;SDS011;7764;51.430;6.840;2023-09-12T04:12:25;37.28;;;30.50;;
15327;SDS011;7764;51.430;6.840;2023-09-12T04:14:52;40.67;;;31.75;;
15327;SDS011;7764;51.430;6.840;2023-09-12T04:17:20;40.15;;;30.48;;
15327;SDS011;7764;51.430;6.840;2023-09-12T04:19:48;37.22;;;28.77;;
15327;SDS011;7764;51.430;6.840;2023-09-12T04:22:15;37.10;;;29.42;;
15327;SDS011;7764;51.430;6.840;2023-09-12T04:24:43;44.33;;;32.05;;
15327;SDS011;7764;51.430;6.840;2023-09-12T04:27:10;42.42;;;31.98;;
15327;SDS011;7764;51.430;6.840;2023-09-12T04:29:37;42.88;;;30.58;;
15327;SDS011;7764;51.430;6.840;2023-09-12T04:32:04;39.03;;;30.02;;
15327;SDS011;7764;51.430;6.840;2023-09-12T04:34:32;43.08;;;30.13;;
15327;SDS011;7764;51.430;6.840;2023-09-12T04:37:01;40.22;;;30.58;;
15327;SDS011;7764;51.430;6.840;2023-09-12T04:39:30;41.83;;;30.23;;
15327;SDS011;7764;51.430;6.840;2023-09-12T04:41:57;38.70;;;29.65;;
15327;SDS011;7764;51.430;6.840;2023-09-12T04:44:24;38.72;;;29.05;;
15327;SDS011;7764;51.430;6.840;2023-09-12T04:46:51;38.45;;;30.05;;
15327;SDS011;7764;51.430;6.840;2023-09-12T04:49:18;37.50;;;29.58;;
15327;SDS011;7764;51.430;6.840;2023-09-12T04:51:45;40.53;;;30.27;;
15327;SDS011;7764;51.430;6.840;2023-09-12T04:54:13;39.83;;;30.08;;
15327;SDS011;7764;51.430;6.840;2023-09-12T04:56:40;35.00;;;26.85;;
15327;SDS011;7764;51.430;6.840;2023-09-12T04:59:07;35.67;;;27.38;;
15327;SDS011;7764;51.430;6.840;2023-09-12T05:01:34;33.80;;;27.10;;
15327;SDS011;7764;51.430;6.840;2023-09-12T05:04:01;34.95;;;26.58;;
15327;SDS011;7764;51.430;6.840;2023-09-12T05:06:29;32.03;;;26.17;;
15327;SDS011;7764;51.430;6.840;2023-09-12T05:08:55;33.53;;;24.52;;
15327;SDS011;7764;51.430;6.840;2023-09-12T05:11:24;31.20;;;23.88;;
15327;SDS011;7764;51.430;6.840;2023-09-12T05:13:51;29.30;;;22.83;;
15327;SDS011;7764;51.430;6.840;2023-09-12T05:16:18;35.47;;;28.42;;
15327;SDS011;7764;51.430;6.840;2023-09-12T05:18:45;31.85;;;25.40;;
15327;SDS011;7764;51.430;6.840;2023-09-12T05:21:14;37.58;;;28.48;;
15327;SDS011;7764;51.430;6.840;2023-09-12T05:23:41;35.95;;;29.00;;
15327;SDS011;7764;51.430;6.840;2023-09-12T05:26:08;35.63;;;27.45;;
15327;SDS011;7764;51.430;6.840;2023-09-12T05:28:36;33.97;;;27.02;;
15327;SDS011;7764;51.430;6.840;2023-09-12T05:31:03;33.42;;;26.77;;
15327;SDS011;7764;51.430;6.840;2023-09-12T05:33:30;35.30;;;27.35;;
15327;SDS011;7764;51.430;6.840;2023-09-12T05:35:57;35.03;;;27.77;;
15327;SDS011;7764;51.430;6.840;2023-09-12T05:38:24;38.60;;;28.60;;
15327;SDS011;7764;51.430;6.840;2023-09-12T05:40:51;40.08;;;28.30;;
15327;SDS011;7764;51.430;6.840;2023-09-12T05:43:21;38.75;;;29.15;;
15327;SDS011;7764;51.430;6.840;2023-09-12T05:45:50;40.65;;;30.73;;
15327;SDS011;7764;51.430;6.840;2023-09-12T05:48:16;39.72;;;30.20;;
15327;SDS011;7764;51.430;6.840;2023-09-12T05:50:45;43.50;;;32.28;;
15327;SDS011;7764;51.430;6.840;2023-09-12T05:53:12;44.22;;;31.65;;
15327;SDS011;7764;51.430;6.840;2023-09-12T05:55:39;42.45;;;30.77;;
15327;SDS011;7764;51.430;6.840;2023-09-12T05:58:07;41.33;;;31.23;;
15327;SDS011;7764;51.430;6.840;2023-09-12T06:00:34;45.75;;;36.00;;
15327;SDS011;7764;51.430;6.840;2023-09-12T06:03:02;41.65;;;30.13;;
15327;SDS011;7764;51.430;6.840;2023-09-12T06:05:30;41.42;;;31.52;;
15327;SDS011;7764;51.430;6.840;2023-09-12T06:07:57;47.53;;;33.53;;
15327;SDS011;7764;51.430;6.840;2023-09-12T06:10:25;48.58;;;34.78;;
15327;SDS011;7764;51.430;6.840;2023-09-12T06:12:52;50.15;;;38.58;;
15327;SDS011;7764;51.430;6.840;2023-09-12T06:15:19;42.40;;;31.60;;
15327;SDS011;7764;51.430;6.840;2023-09-12T06:17:47;48.25;;;32.10;;
15327;SDS011;7764;51.430;6.840;2023-09-12T06:20:15;92.80;;;63.10;;
15327;SDS011;7764;51.430;6.840;2023-09-12T06:22:42;31.58;;;19.20;;
15327;SDS011;7764;51.430;6.840;2023-09-12T06:25:10;19.08;;;11.55;;
15327;SDS011;7764;51.430;6.840;2023-09-12T06:27:37;12.05;;;7.18;;
15327;SDS011;7764;51.430;6.840;2023-09-12T06:30:05;16.20;;;9.88;;
15327;SDS011;7764;51.430;6.840;2023-09-12T06:35:37;15.02;;;7.95;;
15327;SDS011;7764;51.430;6.840;2023-09-12T06:38:04;16.98;;;10.27;;
15327;SDS011;7764;51.430;6.840;2023-09-12T06:40:31;15.43;;;8.85;;
15327;SDS011;7764;51.430;6.840;2023-09-12T06:42:58;12.70;;;7.53;;
15327;SDS011;7764;51.430;6.840;2023-09-12T06:45:25;11.68;;;7.07;;
15327;SDS011;7764;51.430;6.840;2023-09-12T06:47:52;12.18;;;7.60;;
15327;SDS011;7764;51.430;6.840;2023-09-12T06:50:20;10.45;;;7.00;;
15327;SDS011;7764;51.430;6.840;2023-09-12T06:52:48;15.82;;;11.35;;
15327;SDS011;7764;51.430;6.840;2023-09-12T06:55:15;7.40;;;5.05;;
15327;SDS011;7764;51.430;6.840;2023-09-12T06:57:42;8.68;;;4.75;;
15327;SDS011;7764;51.430;6.840;2023-09-12T07:00:10;11.35;;;6.00;;
15327;SDS011;7764;51.430;6.840;2023-09-12T07:02:39;11.13;;;6.22;;
15327;SDS011;7764;51.430;6.840;2023-09-12T07:05:06;8.65;;;4.53;;
15327;SDS011;7764;51.430;6.840;2023-09-12T07:07:33;7.60;;;4.57;;
15327;SDS011;7764;51.430;6.840;2023-09-12T07:10:01;10.05;;;4.95;;
15327;SDS011;7764;51.430;6.840;2023-09-12T07:12:29;14.48;;;6.53;;
15327;SDS011;7764;51.430;6.840;2023-09-12T07:14:58;10.63;;;6.07;;
15327;SDS011;7764;51.430;6.840;2023-09-12T07:17:26;12.93;;;6.28;;
15327;SDS011;7764;51.430;6.840;2023-09-12T07:19:53;11.02;;;6.00;;
15327;SDS011;7764;51.430;6.840;2023-09-12T07:22:20;10.15;;;6.00;;
15327;SDS011;7764;51.430;6.840;2023-09-12T07:24:47;11.48;;;5.30;;
15327;SDS011;7764;51.430;6.840;2023-09-12T07:27:16;10.70;;;6.18;;
15327;SDS011;7764;51.430;6.840;2023-09-12T07:29:42;10.55;;;5.63;;
15327;SDS011;7764;51.430;6.840;2023-09-12T07:32:09;10.43;;;6.70;;
15327;SDS011;7764;51.430;6.840;2023-09-12T07:34:36;12.52;;;6.95;;
15327;SDS011;7764;51.430;6.840;2023-09-12T07:37:04;27.38;;;21.15;;
15327;SDS011;7764;51.430;6.840;2023-09-12T07:39:31;13.00;;;6.82;;
15327;SDS011;7764;51.430;6.840;2023-09-12T07:41:57;9.27;;;6.00;;
15327;SDS011;7764;51.430;6.840;2023-09-12T07:44:26;12.00;;;6.35;;
15327;SDS011;7764;51.430;6.840;2023-09-12T07:46:54;12.80;;;6.50;;
15327;SDS011;7764;51.430;6.840;2023-09-12T07:49:21;15.18;;;6.85;;
15327;SDS011;7764;51.430;6.840;2023-09-12T07:51:51;11.60;;;7.20;;
15327;SDS011;7764;51.430;6.840;2023-09-12T07:54:19;10.50;;;7.00;;
15327;SDS011;7764;51.430;6.840;2023-09-12T07:56:46;11.07;;;6.80;;
15327;SDS011;7764;51.430;6.840;2023-09-12T07:59:14;9.32;;;5.95;;
15327;SDS011;7764;51.430;6.840;2023-09-12T08:01:43;8.90;;;6.22;;
15327;SDS011;7764;51.430;6.840;2023-09-12T08:04:10;11.02;;;6.57;;
15327;SDS011;7764;51.430;6.840;2023-09-12T08:06:37;11.40;;;7.13;;
15327;SDS011;7764;51.430;6.840;2023-09-12T08:09:04;10.25;;;7.75;;
15327;SDS011;7764;51.430;6.840;2023-09-12T08:11:31;10.15;;;7.15;;
15327;SDS011;7764;51.430;6.840;2023-09-12T08:13:58;11.52;;;8.40;;
15327;SDS011;7764;51.430;6.840;2023-09-12T08:16:25;11.30;;;7.68;;
15327;SDS011;7764;51.430;6.840;2023-09-12T08:18:53;14.02;;;8.27;;
15327;SDS011;7764;51.430;6.840;2023-09-12T08:21:20;11.32;;;9.00;;
15327;SDS011;7764;51.430;6.840;2023-09-12T08:23:49;13.23;;;9.45;;
15327;SDS011;7764;51.430;6.840;2023-09-12T08:26:16;11.52;;;8.80;;
15327;SDS011;7764;51.430;6.840;2023-09-12T08:28:43;12.90;;;8.70;;
15327;SDS011;7764;51.430;6.840;2023-09-12T08:31:10;10.90;;;8.02;;
15327;SDS011;7764;51.430;6.840;2023-09-12T08:33:37;12.07;;;8.55;;
15327;SDS011;7764;51.430;6.840;2023-09-12T08:36:05;10.25;;;7.88;;
15327;SDS011;7764;51.430;6.840;2023-09-12T08:38:32;10.77;;;8.30;;
15327;SDS011;7764;51.430;6.840;2023-09-12T08:40:59;10.63;;;7.53;;
15327;SDS011;7764;51.430;6.840;2023-09-12T08:43:26;15.15;;;9.55;;
15327;SDS011;7764;51.430;6.840;2023-09-12T08:45:53;15.68;;;10.55;;
15327;SDS011;7764;51.430;6.840;2023-09-12T08:48:20;17.25;;;11.20;;
15327;SDS011;7764;51.430;6.840;2023-09-12T08:50:48;46.75;;;38.35;;
15327;SDS011;7764;51.430;6.840;2023-09-12T08:53:17;15.60;;;10.65;;
15327;SDS011;7764;51.430;6.840;2023-09-12T08:55:47;13.82;;;10.13;;
15327;SDS011;7764;51.430;6.840;2023-09-12T08:58:15;16.05;;;12.45;;
15327;SDS011;7764;51.430;6.840;2023-09-12T09:00:42;15.52;;;11.25;;
15327;SDS011;7764;51.430;6.840;2023-09-12T09:03:10;15.00;;;10.32;;
15327;SDS011;7764;51.430;6.840;2023-09-12T09:05:37;9.63;;;7.82;;
15327;SDS011;7764;51.430;6.840;2023-09-12T09:08:06;13.25;;;10.23;;
15327;SDS011;7764;51.430;6.840;2023-09-12T09:10:35;13.70;;;10.82;;
15327;SDS011;7764;51.430;6.840;2023-09-12T09:13:02;15.23;;;13.18;;
15327;SDS011;7764;51.430;6.840;2023-09-12T09:15:33;17.58;;;15.23;;
15327;SDS011;7764;51.430;6.840;2023-09-12T09:18:03;20.25;;;16.92;;
15327;SDS011;7764;51.430;6.840;2023-09-12T09:20:31;22.00;;;18.98;;
15327;SDS011;7764;51.430;6.840;2023-09-12T09:23:00;23.77;;;20.33;;
15327;SDS011;7764;51.430;6.840;2023-09-12T09:25:30;21.70;;;19.05;;
15327;SDS011;7764;51.430;6.840;2023-09-12T09:28:00;23.00;;;19.38;;
15327;SDS011;7764;51.430;6.840;2023-09-12T09:30:39;21.73;;;18.98;;
15327;SDS011;7764;51.430;6.840;2023-09-12T09:33:06;21.15;;;18.73;;
15327;SDS011;7764;51.430;6.840;2023-09-12T09:35:33;21.92;;;19.52;;
15327;SDS011;7764;51.430;6.840;2023-09-12T09:38:00;21.05;;;16.85;;
15327;SDS011;7764;51.430;6.840;2023-09-12T09:40:28;20.35;;;18.15;;
15327;SDS011;7764;51.430;6.840;2023-09-12T09:42:55;21.40;;;18.70;;
15327;SDS011;7764;51.430;6.840;2023-09-12T09:45:24;20.20;;;16.92;;
15327;SDS011;7764;51.430;6.840;2023-09-12T09:47:51;17.83;;;14.57;;
15327;SDS011;7764;51.430;6.840;2023-09-12T09:50:18;16.95;;;15.15;;
15327;SDS011;7764;51.430;6.840;2023-09-12T09:52:46;17.48;;;14.88;;
15327;SDS011;7764;51.430;6.840;2023-09-12T09:55:19;17.63;;;15.02;;
15327;SDS011;7764;51.430;6.840;2023-09-12T09:57:47;15.38;;;13.57;;
15327;SDS011;7764;51.430;6.840;2023-09-12T10:00:14;15.90;;;13.68;;
15327;SDS011;7764;51.430;6.840;2023-09-12T10:02:43;17.55;;;14.25;;
15327;SDS011;7764;51.430;6.840;2023-09-12T10:05:11;16.25;;;14.20;;
15327;SDS011;7764;51.430;6.840;2023-09-12T10:07:39;19.35;;;14.05;;
15327;SDS011;7764;51.430;6.840;2023-09-12T10:10:07;17.48;;;13.95;;
15327;SDS011;7764;51.430;6.840;2023-09-12T10:12:35;17.70;;;14.68;;
15327;SDS011;7764;51.430;6.840;2023-09-12T10:15:03;15.60;;;13.30;;
15327;SDS011;7764;51.430;6.840;2023-09-12T10:17:33;15.60;;;11.82;;
15327;SDS011;7764;51.430;6.840;2023-09-12T10:20:04;14.80;;;12.23;;
15327;SDS011;7764;51.430;6.840;2023-09-12T10:22:39;16.45;;;13.07;;
15327;SDS011;7764;51.430;6.840;2023-09-12T10:25:09;17.88;;;13.80;;
15327;SDS011;7764;51.430;6.840;2023-09-12T10:27:37;16.92;;;13.68;;
15327;SDS011;7764;51.430;6.840;2023-09-12T10:30:05;15.55;;;13.88;;
15327;SDS011;7764;51.430;6.840;2023-09-12T10:32:34;17.85;;;15.43;;
15327;SDS011;7764;51.430;6.840;2023-09-12T10:35:04;18.08;;;16.02;;
15327;SDS011;7764;51.430;6.840;2023-09-12T10:37:34;19.30;;;16.20;;
15327;SDS011;7764;51.430;6.840;2023-09-12T10:40:08;18.98;;;17.05;;
15327;SDS011;7764;51.430;6.840;2023-09-12T10:42:37;19.40;;;16.95;;
15327;SDS011;7764;51.430;6.840;2023-09-12T10:45:06;19.15;;;16.75;;
15327;SDS011;7764;51.430;6.840;2023-09-12T10:47:38;21.25;;;17.52;;
15327;SDS011;7764;51.430;6.840;2023-09-12T10:50:07;20.92;;;17.65;;
15327;SDS011;7764;51.430;6.840;2023-09-12T10:52:35;18.60;;;16.70;;
15327;SDS011;7764;51.430;6.840;2023-09-12T10:55:05;18.33;;;16.20;;
15327;SDS011;7764;51.430;6.840;2023-09-12T10:57:32;16.77;;;14.98;;
15327;SDS011;7764;51.430;6.840;2023-09-12T11:00:12;16.98;;;13.95;;
15327;SDS011;7764;51.430;6.840;2023-09-12T11:02:39;15.57;;;12.85;;
15327;SDS011;7764;51.430;6.840;2023-09-12T11:08:04;17.33;;;14.10;;
15327;SDS011;7764;51.430;6.840;2023-09-12T11:10:31;13.60;;;11.27;;
15327;SDS011;7764;51.430;6.840;2023-09-12T11:12:58;15.13;;;13.38;;
15327;SDS011;7764;51.430;6.840;2023-09-12T11:15:26;17.00;;;14.85;;
15327;SDS011;7764;51.430;6.840;2023-09-12T11:18:00;15.68;;;14.00;;
15327;SDS011;7764;51.430;6.840;2023-09-12T11:23:20;10.98;;;9.32;;
15327;SDS011;7764;51.430;6.840;2023-09-12T11:26:02;12.75;;;9.75;;
15327;SDS011;7764;51.430;6.840;2023-09-12T11:28:31;14.23;;;9.80;;
15327;SDS011;7764;51.430;6.840;2023-09-12T11:30:58;13.00;;;10.77;;
15327;SDS011;7764;51.430;6.840;2023-09-12T11:33:25;14.95;;;11.90;;
15327;SDS011;7764;51.430;6.840;2023-09-12T11:35:54;13.23;;;11.82;;
15327;SDS011;7764;51.430;6.840;2023-09-12T11:38:35;13.13;;;11.70;;
15327;SDS011;7764;51.430;6.840;2023-09-12T11:41:05;19.85;;;17.88;;
15327;SDS011;7764;51.430;6.840;2023-09-12T11:43:33;15.75;;;14.15;;
15327;SDS011;7764;51.430;6.840;2023-09-12T11:46:06;11.50;;;10.30;;
15327;SDS011;7764;51.430;6.840;2023-09-12T11:48:34;12.38;;;10.60;;
15327;SDS011;7764;51.430;6.840;2023-09-12T11:51:03;11.43;;;9.82;;
15327;SDS011;7764;51.430;6.840;2023-09-12T11:53:33;13.82;;;10.57;;
15327;SDS011;7764;51.430;6.840;2023-09-12T11:56:00;10.25;;;8.88;;
15327;SDS011;7764;51.430;6.840;2023-09-12T11:58:27;10.45;;;8.75;;
15327;SDS011;7764;51.430;6.840;2023-09-12T12:00:55;15.70;;;8.88;;
15327;SDS011;7764;51.430;6.840;2023-09-12T12:03:25;10.95;;;9.13;;
15327;SDS011;7764;51.430;6.840;2023-09-12T12:05:53;12.55;;;9.75;;
15327;SDS011;7764;51.430;6.840;2023-09-12T12:08:23;10.35;;;8.93;;
15327;SDS011;7764;51.430;6.840;2023-09-12T12:10:50;10.68;;;9.10;;
15327;SDS011;7764;51.430;6.840;2023-09-12T12:13:18;12.85;;;11.55;;
15327;SDS011;7764;51.430;6.840;2023-09-12T12:15:45;13.13;;;11.65;;
15327;SDS011;7764;51.430;6.840;2023-09-12T12:18:12;15.75;;;13.68;;
15327;SDS011;7764;51.430;6.840;2023-09-12T12:20:39;12.65;;;11.35;;
15327;SDS011;7764;51.430;6.840;2023-09-12T12:23:06;14.63;;;11.98;;
15327;SDS011;7764;51.430;6.840;2023-09-12T12:25:34;13.90;;;12.45;;
15327;SDS011;7764;51.430;6.840;2023-09-12T12:28:02;13.32;;;11.65;;
15327;SDS011;7764;51.430;6.840;2023-09-12T12:30:30;14.88;;;12.52;;
15327;SDS011;7764;51.430;6.840;2023-09-12T12:33:00;12.80;;;11.38;;
15327;SDS011;7764;51.430;6.840;2023-09-12T12:35:27;13.80;;;11.68;;
15327;SDS011;7764;51.430;6.840;2023-09-12T12:37:56;15.50;;;12.32;;
15327;SDS011;7764;51.430;6.840;2023-09-12T12:40:22;12.60;;;11.30;;
15327;SDS011;7764;51.430;6.840;2023-09-12T12:42:51;15.63;;;12.52;;
15327;SDS011;7764;51.430;6.840;2023-09-12T12:45:18;14.73;;;12.77;;
15327;SDS011;7764;51.430;6.840;2023-09-12T12:47:46;13.70;;;12.27;;
15327;SDS011;7764;51.430;6.840;2023-09-12T12:50:18;11.88;;;10.63;;
15327;SDS011;7764;51.430;6.840;2023-09-12T12:52:46;12.35;;;11.15;;
15327;SDS011;7764;51.430;6.840;2023-09-12T12:55:14;12.85;;;11.50;;
15327;SDS011;7764;51.430;6.840;2023-09-12T12:57:42;12.77;;;10.75;;
15327;SDS011;7764;51.430;6.840;2023-09-12T13:00:12;14.23;;;11.82;;
15327;SDS011;7764;51.430;6.840;2023-09-12T13:02:40;11.73;;;10.38;;
15327;SDS011;7764;51.430;6.840;2023-09-12T13:05:19;13.70;;;12.27;;
15327;SDS011;7764;51.430;6.840;2023-09-12T13:07:46;14.52;;;13.02;;
15327;SDS011;7764;51.430;6.840;2023-09-12T13:10:13;13.45;;;12.15;;
15327;SDS011;7764;51.430;6.840;2023-09-12T13:12:40;15.43;;;12.45;;
15327;SDS011;7764;51.430;6.840;2023-09-12T13:15:12;16.55;;;12.32;;
15327;SDS011;7764;51.430;6.840;2023-09-12T13:17:40;12.05;;;10.85;;
15327;SDS011;7764;51.430;6.840;2023-09-12T13:20:07;14.45;;;12.65;;
15327;SDS011;7764;51.430;6.840;2023-09-12T13:22:35;14.10;;;11.60;;
15327;SDS011;7764;51.430;6.840;2023-09-12T13:25:02;13.48;;;12.07;;
15327;SDS011;7764;51.430;6.840;2023-09-12T13:27:29;12.88;;;11.40;;
15327;SDS011;7764;51.430;6.840;2023-09-12T13:29:56;16.88;;;13.02;;
15327;SDS011;7764;51.430;6.840;2023-09-12T13:32:24;24.98;;;22.35;;
15327;SDS011;7764;51.430;6.840;2023-09-12T13:34:52;13.57;;;11.82;;
15327;SDS011;7764;51.430;6.840;2023-09-12T13:37:19;23.67;;;20.80;;
15327;SDS011;7764;51.430;6.840;2023-09-12T13:39:46;133.95;;;113.88;;
15327;SDS011;7764;51.430;6.840;2023-09-12T13:42:14;19.85;;;15.43;;
15327;SDS011;7764;51.430;6.840;2023-09-12T13:44:43;13.65;;;12.25;;
15327;SDS011;7764;51.430;6.840;2023-09-12T13:47:14;14.45;;;11.55;;
15327;SDS011;7764;51.430;6.840;2023-09-12T13:49:47;14.10;;;12.60;;
15327;SDS011;7764;51.430;6.840;2023-09-12T13:52:16;17.02;;;14.57;;
15327;SDS011;7764;51.430;6.840;2023-09-12T13:54:44;21.10;;;11.73;;
15327;SDS011;7764;51.430;6.840;2023-09-12T13:57:10;13.38;;;11.65;;
15327;SDS011;7764;51.430;6.840;2023-09-12T13:59:38;14.00;;;12.57;;
15327;SDS011;7764;51.430;6.840;2023-09-12T14:02:05;11.80;;;10.60;;
15327;SDS011;7764;51.430;6.840;2023-09-12T14:04:32;13.90;;;10.93;;
15327;SDS011;7764;51.430;6.840;2023-09-12T14:07:01;14.60;;;11.57;;
15327;SDS011;7764;51.430;6.840;2023-09-12T14:09:28;13.25;;;10.90;;
15327;SDS011;7764;51.430;6.840;2023-09-12T14:11:55;11.82;;;10.55;;
15327;SDS011;7764;51.430;6.840;2023-09-12T14:14:22;16.38;;;11.98;;
15327;SDS011;7764;51.430;6.840;2023-09-12T14:16:49;13.65;;;11.82;;
15327;SDS011;7764;51.430;6.840;2023-09-12T14:19:15;14.43;;;11.65;;
15327;SDS011;7764;51.430;6.840;2023-09-12T14:21:42;15.25;;;11.98;;
15327;SDS011;7764;51.430;6.840;2023-09-12T14:24:11;14.57;;;11.02;;
15327;SDS011;7764;51.430;6.840;2023-09-12T14:26:38;12.98;;;10.32;;
15327;SDS011;7764;51.430;6.840;2023-09-12T14:29:05;12.05;;;9.60;;
15327;SDS011;7764;51.430;6.840;2023-09-12T14:31:32;10.77;;;9.35;;
15327;SDS011;7764;51.430;6.840;2023-09-12T14:34:01;15.00;;;10.30;;
15327;SDS011;7764;51.430;6.840;2023-09-12T14:36:29;10.50;;;9.32;;
15327;SDS011;7764;51.430;6.840;2023-09-12T14:38:56;10.40;;;8.90;;
15327;SDS011;7764;51.430;6.840;2023-09-12T14:41:24;12.65;;;9.73;;
15327;SDS011;7764;51.430;6.840;2023-09-12T14:43:51;16.10;;;11.40;;
15327;SDS011;7764;51.430;6.840;2023-09-12T14:46:18;12.13;;;10.77;;
15327;SDS011;7764;51.430;6.840;2023-09-12T14:48:44;14.10;;;11.15;;
15327;SDS011;7764;51.430;6.840;2023-09-12T14:51:11;12.23;;;10.88;;
15327;SDS011;7764;51.430;6.840;2023-09-12T14:53:38;18.60;;;11.05;;